Wetterdaten der Wetterstation 59969 Hallenberg

Letzte Wetterlage 05.03.2015 19:04
Wetterdiagramm
Tabellarische Darstellung
Datum Temperatur Windchill Feuchte Luftdruck Windrichtung Windstärke Niederschlag
05.03.2015 19:25 2,3 °C 2,3 °C 78 % 1032,4 hPa 0,00 mm
05.03.2015 19:04 2,6 °C 2,6 °C 77 % 1032,4 hPa 0,00 mm
05.03.2015 18:44 2,9 °C 2,9 °C 74 % 1032,4 hPa 0,00 mm
05.03.2015 18:23 3,1 °C 3,1 °C 73 % 1032,4 hPa 0,00 mm
05.03.2015 18:03 3,5 °C 3,5 °C 72 % 1032,4 hPa 0,00 mm
05.03.2015 17:42 3,7 °C 3,7 °C 72 % 1032,4 hPa 0,00 mm
05.03.2015 17:21 3,9 °C 3,9 °C 70 % 1032,4 hPa 0,00 mm
05.03.2015 17:00 4,1 °C 4,1 °C 69 % 1032,4 hPa 0,00 mm
05.03.2015 16:40 4,4 °C 4,4 °C 69 % 1032,4 hPa 0,00 mm
05.03.2015 15:59 4,3 °C 4,3 °C 68 % 1032,4 hPa 0,00 mm
05.03.2015 15:38 4,5 °C 4,5 °C 68 % 1032,4 hPa 0,00 mm
05.03.2015 15:18 4,4 °C 4,4 °C 67 % 1032,4 hPa 0,00 mm
05.03.2015 14:57 4,6 °C 4,6 °C 67 % 1032,4 hPa 0,00 mm
05.03.2015 14:36 4,5 °C 4,5 °C 68 % 1032,4 hPa 0,00 mm
05.03.2015 14:16 4,6 °C 4,6 °C 67 % 1032,4 hPa 0,00 mm
05.03.2015 13:56 4,3 °C 4,3 °C 70 % 1032,4 hPa 0,00 mm
05.03.2015 13:35 4,0 °C 4,0 °C 70 % 1032,4 hPa 0,00 mm
05.03.2015 13:13 3,9 °C 3,9 °C 71 % 1032,4 hPa 0,00 mm
05.03.2015 12:53 4,4 °C 4,4 °C 69 % 1032,4 hPa 0,00 mm
05.03.2015 12:32 4,1 °C 4,1 °C 70 % 1032,4 hPa 0,00 mm
05.03.2015 12:11 3,8 °C 3,8 °C 70 % 1032,4 hPa 0,00 mm
05.03.2015 11:50 3,9 °C 3,9 °C 70 % 1032,4 hPa 0,00 mm
05.03.2015 11:29 3,8 °C 3,8 °C 71 % 1032,4 hPa 0,00 mm
05.03.2015 11:08 3,7 °C 3,7 °C 70 % 1032,4 hPa 0,00 mm
05.03.2015 10:48 3,4 °C 3,4 °C 72 % 1032,4 hPa 0,00 mm
Neue Wetterwarnung

Neue Niederschlagsmeldung
Neue Meldung
Regen Liveticker
    sehr starker Regen/Gewitter
    starker Regen/Gewitter
    mäßiger bis starker Regen
    mäßiger Regen
    leichter bis mäßiger Regen
    kein Regen